createdAt,value
2018-11-25T00:00:36.288Z,97014.94
2018-11-25T00:08:18.003Z,97022.98
2018-11-25T00:10:47.675Z,97018.59
2018-11-25T00:13:17.422Z,97019.17
2018-11-25T00:15:47.199Z,97015.98
2018-11-25T00:18:18.085Z,97007.12
2018-11-25T00:20:46.776Z,97004.91
2018-11-25T00:23:16.569Z,97001.83
2018-11-25T00:25:46.468Z,97001.83
2018-11-25T00:28:16.188Z,97001.47
2018-11-25T00:30:45.948Z,97013.89
2018-11-25T00:33:15.534Z,97019.75
2018-11-25T00:35:45.287Z,97007.52
2018-11-25T00:38:14.940Z,97006.36
2018-11-25T00:40:44.612Z,97012.19
2018-11-25T00:43:14.352Z,97006.94
2018-11-25T00:45:44.148Z,97001.94
2018-11-25T00:48:13.947Z,96998.39
2018-11-25T00:50:43.664Z,97001.08
2018-11-25T00:53:13.472Z,96992.20
2018-11-25T00:55:43.282Z,96993.44
2018-11-25T00:58:13.096Z,96994.38
2018-11-25T01:00:42.863Z,96991.33
2018-11-25T01:03:12.696Z,96990.09
2018-11-25T01:05:42.485Z,96979.75
2018-11-25T01:08:12.283Z,96969.03
2018-11-25T01:10:42.307Z,96955.27
2018-11-25T01:13:12.112Z,96967.33
2018-11-25T01:15:41.925Z,96965.59
2018-11-25T01:18:11.606Z,96962.44
2018-11-25T01:20:41.211Z,96961.57
2018-11-25T01:23:10.992Z,96963.31
2018-11-25T01:25:40.787Z,96968.16
2018-11-25T01:28:10.464Z,96966.93
2018-11-25T01:30:40.164Z,96959.87
2018-11-25T01:33:09.956Z,96958.53
2018-11-25T01:35:39.665Z,96959.36
2018-11-25T01:38:09.494Z,96957.19
2018-11-25T01:40:39.271Z,96954.98
2018-11-25T01:43:09.007Z,96956.32
2018-11-25T01:45:38.765Z,96954.12
2018-11-25T01:48:08.582Z,96945.79
2018-11-25T01:50:38.464Z,96939.96
2018-11-25T01:53:08.275Z,96934.13
2018-11-25T01:55:38.400Z,96935.08
2018-11-25T01:58:08.383Z,96939.96
2018-11-25T02:00:38.179Z,96926.56
2018-11-25T02:03:07.887Z,96916.32
2018-11-25T02:05:37.619Z,96910.96
2018-11-25T02:08:07.292Z,96912.81
2018-11-25T02:10:37.081Z,96914.62
2018-11-25T02:13:06.782Z,96909.16
2018-11-25T02:15:36.990Z,96904.77
2018-11-25T02:18:06.790Z,96899.89
2018-11-25T02:20:36.471Z,96912.88
2018-11-25T02:23:06.472Z,96901.80
2018-11-25T02:25:36.148Z,96899.48
2018-11-25T02:28:06.053Z,96891.95
2018-11-25T02:30:35.662Z,96890.62
2018-11-25T02:33:05.576Z,96891.95
2018-11-25T02:35:35.560Z,96897.86
2018-11-25T02:38:05.261Z,96886.64
2018-11-25T02:40:35.091Z,96890.11
2018-11-25T02:43:04.837Z,96884.47
2018-11-25T02:45:34.690Z,96873.75
2018-11-25T02:48:04.509Z,96869.73
2018-11-25T02:50:34.487Z,96871.91
2018-11-25T02:53:07.860Z,96870.21
2018-11-25T02:55:37.656Z,96872.02
2018-11-25T02:58:07.352Z,96868.48
2018-11-25T03:00:37.264Z,96869.81
2018-11-25T03:03:07.056Z,96868.59
2018-11-25T03:05:36.832Z,96869.81
2018-11-25T03:08:06.631Z,96868.87
2018-11-25T03:10:36.315Z,96865.44
2018-11-25T03:13:06.122Z,96870.39
2018-11-25T03:15:35.921Z,96870.91
2018-11-25T03:18:10.241Z,96871.27
2018-11-25T03:20:40.111Z,96880.28
2018-11-25T03:23:09.971Z,96871.84
2018-11-25T03:25:39.744Z,96869.56
2018-11-25T03:28:09.572Z,96865.55
2018-11-25T03:30:39.363Z,96869.56
2018-11-25T03:33:09.161Z,96866.13
2018-11-25T03:35:38.923Z,96861.24
2018-11-25T03:38:08.781Z,96862.95
2018-11-25T03:40:38.541Z,96854.08
2018-11-25T03:43:08.349Z,96854.91
2018-11-25T03:45:38.152Z,96860.27
2018-11-25T03:48:07.931Z,96860.37
2018-11-25T03:50:37.737Z,96858.17
2018-11-25T03:53:07.524Z,96860.84
2018-11-25T03:55:37.268Z,96857.34
2018-11-25T03:58:07.253Z,96853.20
2018-11-25T04:00:37.010Z,96851.87
2018-11-25T04:03:06.820Z,96849.66
2018-11-25T04:05:36.529Z,96839.08
2018-11-25T04:08:06.283Z,96849.38
2018-11-25T04:10:36.168Z,96850.25
2018-11-25T04:13:06.208Z,96857.34
2018-11-25T04:15:35.985Z,96858.67
2018-11-25T04:18:05.765Z,96853.31
2018-11-25T04:20:35.507Z,96836.90
2018-11-25T04:23:05.318Z,96846.34
2018-11-25T04:25:34.952Z,96844.52
2018-11-25T04:28:04.735Z,96843.19
2018-11-25T04:30:34.437Z,96833.31
2018-11-25T04:33:04.195Z,96836.97
2018-11-25T04:35:33.968Z,96832.08
2018-11-25T04:38:03.753Z,96840.11
2018-11-25T04:40:33.408Z,96833.81
2018-11-25T04:43:03.177Z,96837.44
2018-11-25T04:45:32.883Z,96840.98
2018-11-25T04:48:02.818Z,96836.09
2018-11-25T04:50:32.503Z,96838.77
2018-11-25T04:53:02.574Z,96845.94
2018-11-25T04:55:32.331Z,96843.02
2018-11-25T04:58:02.151Z,96839.00
2018-11-25T05:00:31.950Z,96834.47
2018-11-25T05:03:01.775Z,96826.55
2018-11-25T05:05:31.672Z,96831.33
2018-11-25T05:08:01.352Z,96827.89
2018-11-25T05:10:31.283Z,96822.53
2018-11-25T05:13:01.072Z,96824.34
2018-11-25T05:15:30.850Z,96821.30
2018-11-25T05:18:00.588Z,96811.45
2018-11-25T05:20:30.263Z,96814.61
2018-11-25T05:23:00.000Z,96810.59
2018-11-25T05:25:29.859Z,96813.74
2018-11-25T05:27:59.658Z,96811.06
2018-11-25T05:30:29.377Z,96807.52
2018-11-25T05:32:59.175Z,96810.12
2018-11-25T05:35:28.992Z,96808.78
2018-11-25T05:37:58.763Z,96810.59
2018-11-25T05:40:28.508Z,96821.41
2018-11-25T05:42:58.249Z,96817.40
2018-11-25T05:45:28.023Z,96816.06
2018-11-25T05:47:57.903Z,96808.50
2018-11-25T05:50:27.600Z,96804.95
2018-11-25T05:52:57.283Z,96811.64
2018-11-25T05:55:27.016Z,96809.84
2018-11-25T05:57:56.807Z,96807.27
2018-11-25T06:00:28.256Z,96804.59
2018-11-25T06:02:58.211Z,96802.38
2018-11-25T06:05:28.020Z,96802.38
2018-11-25T06:07:57.911Z,96806.30
2018-11-25T06:10:27.599Z,96806.77
2018-11-25T06:12:57.633Z,96806.87
2018-11-25T06:15:27.319Z,96807.73
2018-11-25T06:17:57.263Z,96799.70
2018-11-25T06:20:27.121Z,96811.76
2018-11-25T06:22:56.915Z,96803.72
2018-11-25T06:25:26.601Z,96804.59
2018-11-25T06:27:56.915Z,96803.72
2018-11-25T06:30:26.592Z,96802.86
2018-11-25T06:32:56.325Z,96798.84
2018-11-25T06:35:26.164Z,96807.73
2018-11-25T06:37:55.895Z,96803.25
2018-11-25T06:40:25.653Z,96799.23
2018-11-25T06:42:55.263Z,96797.39
2018-11-25T06:45:26.583Z,96796.55
2018-11-25T06:47:57.080Z,96799.98
2018-11-25T06:50:26.743Z,96801.05
2018-11-25T06:52:56.597Z,96804.95
2018-11-25T06:55:26.404Z,96799.23
2018-11-25T06:57:56.321Z,96798.26
2018-11-25T07:00:26.610Z,96796.80
2018-11-25T07:02:56.339Z,96798.06
2018-11-25T07:05:26.428Z,96800.16
2018-11-25T07:07:56.235Z,96799.94
2018-11-25T07:10:26.019Z,96795.92
2018-11-25T07:12:56.420Z,96796.51
2018-11-25T07:15:26.223Z,96794.70
2018-11-25T07:17:56.120Z,96800.52
2018-11-25T07:20:25.898Z,96800.33
2018-11-25T07:22:55.544Z,96793.55
2018-11-25T07:25:25.491Z,96802.97
2018-11-25T07:27:55.159Z,96801.23
2018-11-25T07:30:25.835Z,96789.94
2018-11-25T07:32:55.708Z,96786.79
2018-11-25T07:35:27.327Z,96789.75
2018-11-25T07:37:57.627Z,96795.97
2018-11-25T07:40:27.668Z,96793.30
2018-11-25T07:42:57.682Z,96794.71
2018-11-25T07:45:30.630Z,96797.39
2018-11-25T07:47:57.400Z,96800.94
2018-11-25T07:50:27.204Z,96792.03
2018-11-25T07:52:57.064Z,96789.75
2018-11-25T07:55:26.978Z,96792.31
2018-11-25T07:57:58.309Z,96792.96
2018-11-25T08:00:28.218Z,96784.84
2018-11-25T08:02:58.005Z,96784.34
2018-11-25T08:05:28.283Z,96789.23
2018-11-25T08:07:58.037Z,96790.56
2018-11-25T08:10:28.832Z,96791.32
2018-11-25T08:12:58.582Z,96784.17
2018-11-25T08:15:28.427Z,96786.94
2018-11-25T08:17:58.227Z,96784.73
2018-11-25T08:20:28.004Z,96778.41
2018-11-25T08:22:57.861Z,96783.76
2018-11-25T08:25:27.632Z,96779.49
2018-11-25T08:27:57.471Z,96775.47
2018-11-25T08:30:27.222Z,96775.19
2018-11-25T08:32:56.961Z,96770.31
2018-11-25T08:35:26.684Z,96765.54
2018-11-25T08:37:56.412Z,96760.58
2018-11-25T08:40:26.352Z,96763.73
2018-11-25T08:42:56.132Z,96765.17
2018-11-25T08:45:25.848Z,96758.84
2018-11-25T08:47:55.554Z,96766.88
2018-11-25T08:50:25.271Z,96757.98
2018-11-25T08:52:54.968Z,96754.83
2018-11-25T08:55:25.547Z,96756.56
2018-11-25T08:57:55.563Z,96756.81
2018-11-25T09:00:27.205Z,96756.03
2018-11-25T09:02:57.469Z,96756.20
2018-11-25T09:05:27.200Z,96744.20
2018-11-25T09:07:57.544Z,96751.38
2018-11-25T09:10:27.383Z,96754.36
2018-11-25T09:12:58.144Z,96746.27
2018-11-25T09:15:31.659Z,96748.58
2018-11-25T09:18:01.467Z,96745.45
2018-11-25T09:20:31.279Z,96736.84
2018-11-25T09:23:01.072Z,96729.47
2018-11-25T09:25:31.827Z,96719.32
2018-11-25T09:28:02.611Z,96710.65
2018-11-25T09:30:33.016Z,96714.27
2018-11-25T09:33:02.813Z,96706.16
2018-11-25T09:35:32.527Z,96703.94
2018-11-25T09:38:02.699Z,96700.97
2018-11-25T09:40:32.444Z,96698.43
2018-11-25T09:43:02.300Z,96692.83
2018-11-25T09:45:32.096Z,96676.91
2018-11-25T09:48:02.011Z,96678.84
2018-11-25T09:50:31.821Z,96677.89
2018-11-25T09:53:01.604Z,96672.77
2018-11-25T09:55:31.362Z,96666.47
2018-11-25T09:58:01.785Z,96662.05
2018-11-25T10:00:33.628Z,96653.84
2018-11-25T10:03:04.093Z,96648.69
2018-11-25T10:05:33.776Z,96649.97
2018-11-25T10:08:03.715Z,96642.05
2018-11-25T10:10:33.313Z,96639.28
2018-11-25T10:13:06.299Z,96633.08
2018-11-25T10:15:35.980Z,96627.36
2018-11-25T10:18:05.849Z,96621.28
2018-11-25T10:20:35.487Z,96620.02
2018-11-25T10:23:08.310Z,96619.01
2018-11-25T10:25:38.133Z,96608.86
2018-11-25T10:28:08.243Z,96606.96
2018-11-25T10:30:38.120Z,96604.53
2018-11-25T10:33:09.720Z,96599.77
2018-11-25T10:35:39.524Z,96597.72
2018-11-25T10:38:09.416Z,96593.80
2018-11-25T10:40:39.904Z,96596.49
2018-11-25T10:43:09.668Z,96587.19
2018-11-25T10:45:39.420Z,96578.23
2018-11-25T10:48:09.492Z,96577.55
2018-11-25T10:50:39.280Z,96576.48
2018-11-25T10:53:09.110Z,96566.23
2018-11-25T10:55:38.901Z,96566.61
2018-11-25T10:58:09.408Z,96559.62
2018-11-25T11:00:45.893Z,96552.20
2018-11-25T11:03:20.831Z,96544.55
2018-11-25T11:05:55.464Z,96546.80
2018-11-25T11:08:25.309Z,96545.64
2018-11-25T11:10:55.295Z,96537.89
2018-11-25T11:13:25.212Z,96533.87
2018-11-25T11:15:55.012Z,96528.66
2018-11-25T11:18:25.012Z,96525.13
2018-11-25T11:20:54.671Z,96518.23
2018-11-25T11:23:24.448Z,96526.88
2018-11-25T11:25:54.424Z,96515.09
2018-11-25T11:28:24.227Z,96514.94
2018-11-25T11:30:54.137Z,96505.84
2018-11-25T11:33:23.875Z,96510.59
2018-11-25T11:35:53.674Z,96507.25
2018-11-25T11:38:23.501Z,96505.41
2018-11-25T11:40:53.836Z,96500.42
2018-11-25T11:43:23.539Z,96491.55
2018-11-25T11:45:53.460Z,96488.31
2018-11-25T11:48:23.245Z,96484.64
2018-11-25T11:50:53.057Z,96481.27
2018-11-25T11:53:22.851Z,96476.77
2018-11-25T11:55:52.689Z,96476.16
2018-11-25T11:58:22.533Z,96466.66
2018-11-25T12:00:52.263Z,96461.95
2018-11-25T12:03:26.489Z,96460.50
2018-11-25T12:05:51.939Z,96461.43
2018-11-25T12:08:21.684Z,96452.11
2018-11-25T12:10:51.504Z,96453.05
2018-11-25T12:13:21.295Z,96451.44
2018-11-25T12:15:51.160Z,96443.19
2018-11-25T12:18:20.956Z,96436.21
2018-11-25T12:20:50.783Z,96440.32
2018-11-25T12:23:20.576Z,96433.37
2018-11-25T12:25:50.653Z,96428.61
2018-11-25T12:28:20.452Z,96428.45
2018-11-25T12:30:50.331Z,96426.57
2018-11-25T12:33:20.110Z,96422.52
2018-11-25T12:35:50.015Z,96424.41
2018-11-25T12:38:19.708Z,96416.42
2018-11-25T12:40:49.468Z,96411.34
2018-11-25T12:43:19.276Z,96411.98
2018-11-25T12:45:49.056Z,96404.17
2018-11-25T12:48:18.751Z,96399.08
2018-11-25T12:50:48.540Z,96390.98
2018-11-25T12:53:18.286Z,96392.16
2018-11-25T12:55:48.192Z,96388.59
2018-11-25T12:58:17.897Z,96384.01
2018-11-25T13:00:49.031Z,96380.13
2018-11-25T13:03:18.864Z,96369.23
2018-11-25T13:05:49.227Z,96372.79
2018-11-25T13:08:19.058Z,96365.30
2018-11-25T13:10:48.804Z,96366.15
2018-11-25T13:13:18.727Z,96359.84
2018-11-25T13:15:48.393Z,96350.55
2018-11-25T13:18:18.227Z,96354.45
2018-11-25T13:20:47.929Z,96350.87
2018-11-25T13:23:17.792Z,96346.61
2018-11-25T13:25:48.603Z,96343.59
2018-11-25T13:28:18.440Z,96339.45
2018-11-25T13:30:48.231Z,96336.41
2018-11-25T13:33:17.883Z,96338.88
2018-11-25T13:35:47.853Z,96331.80
2018-11-25T13:38:17.576Z,96328.66
2018-11-25T13:40:47.442Z,96326.39
2018-11-25T13:43:17.117Z,96326.45
2018-11-25T13:45:46.842Z,96315.36
2018-11-25T13:48:16.463Z,96308.06
2018-11-25T13:50:46.312Z,96318.16
2018-11-25T13:53:16.195Z,96313.80
2018-11-25T13:55:45.958Z,96311.28
2018-11-25T13:58:16.344Z,96305.28
2018-11-25T14:00:47.691Z,96305.95
2018-11-25T14:03:24.173Z,96303.50
2018-11-25T14:05:55.240Z,96298.92
2018-11-25T14:08:24.943Z,96295.39
2018-11-25T14:11:04.776Z,96291.86
2018-11-25T14:13:34.636Z,96289.70
2018-11-25T14:16:04.804Z,96292.97
2018-11-25T14:18:34.596Z,96279.89
2018-11-25T14:21:04.380Z,96284.29
2018-11-25T14:23:34.257Z,96274.28
2018-11-25T14:26:09.216Z,96275.16
2018-11-25T14:28:39.064Z,96268.48
2018-11-25T14:31:08.871Z,96261.31
2018-11-25T14:33:38.910Z,96259.75
2018-11-25T14:36:08.713Z,96254.62
2018-11-25T14:38:38.584Z,96251.51
2018-11-25T14:41:08.661Z,96250.11
2018-11-25T14:43:38.467Z,96247.58
2018-11-25T14:46:08.364Z,96248.66
2018-11-25T14:48:37.996Z,96242.11
2018-11-25T14:51:07.825Z,96238.27
2018-11-25T14:53:37.545Z,96236.05
2018-11-25T14:56:07.343Z,96232.58
2018-11-25T14:58:37.143Z,96230.61
2018-11-25T15:01:07.033Z,96222.88
2018-11-25T15:03:36.604Z,96225.92
2018-11-25T15:06:06.349Z,96224.70
2018-11-25T15:08:36.552Z,96220.94
2018-11-25T15:11:06.238Z,96219.36
2018-11-25T15:13:35.887Z,96218.03
2018-11-25T15:16:07.897Z,96215.22
2018-11-25T15:18:37.660Z,96207.92
2018-11-25T15:21:08.544Z,96211.26
2018-11-25T15:23:38.483Z,96203.39
2018-11-25T15:26:09.636Z,96201.77
2018-11-25T15:28:39.508Z,96199.81
2018-11-25T15:31:09.199Z,96200.95
2018-11-25T15:33:38.937Z,96199.17
2018-11-25T15:36:08.744Z,96193.20
2018-11-25T15:38:38.486Z,96193.23
2018-11-25T15:41:08.438Z,96193.42
2018-11-25T15:43:38.179Z,96183.44
2018-11-25T15:46:07.972Z,96191.11
2018-11-25T15:48:37.784Z,96186.70
2018-11-25T15:51:07.609Z,96184.23
2018-11-25T15:53:37.233Z,96191.99
2018-11-25T15:56:09.686Z,96191.00
2018-11-25T15:58:39.484Z,96188.72
2018-11-25T16:01:09.318Z,96186.96
2018-11-25T16:03:39.087Z,96183.52
2018-11-25T16:06:12.166Z,96182.02
2018-11-25T16:08:41.958Z,96178.77
2018-11-25T16:11:11.577Z,96175.02
2018-11-25T16:13:41.366Z,96178.74
2018-11-25T16:16:11.447Z,96181.56
2018-11-25T16:18:41.531Z,96172.71
2018-11-25T16:21:11.258Z,96172.77
2018-11-25T16:23:41.112Z,96171.09
2018-11-25T16:26:17.135Z,96169.59
2018-11-25T16:28:48.397Z,96161.55
2018-11-25T16:31:18.184Z,96166.94
2018-11-25T16:33:47.953Z,96161.15
2018-11-25T16:36:17.654Z,96164.50
2018-11-25T16:38:47.652Z,96160.69
2018-11-25T16:41:17.350Z,96154.38
2018-11-25T16:43:47.268Z,96153.72
2018-11-25T16:46:16.968Z,96152.50
2018-11-25T16:48:46.820Z,96148.22
2018-11-25T16:51:16.856Z,96148.06
2018-11-25T16:53:46.799Z,96148.73
2018-11-25T16:56:16.516Z,96138.48
2018-11-25T16:58:46.294Z,96144.49
2018-11-25T17:01:16.055Z,96133.79
2018-11-25T17:03:45.964Z,96133.94
2018-11-25T17:06:16.045Z,96135.10
2018-11-25T17:08:46.275Z,96132.98
2018-11-25T17:11:16.091Z,96134.25
2018-11-25T17:13:45.888Z,96128.94
2018-11-25T17:16:15.742Z,96126.61
2018-11-25T17:18:45.635Z,96126.83
2018-11-25T17:21:15.496Z,96124.50
2018-11-25T17:23:45.334Z,96118.69
2018-11-25T17:26:15.142Z,96123.65
2018-11-25T17:28:44.953Z,96117.31
2018-11-25T17:31:14.723Z,96109.45
2018-11-25T17:33:44.915Z,96107.64
2018-11-25T17:36:14.655Z,96106.05
2018-11-25T17:38:44.400Z,96103.36
2018-11-25T17:41:14.344Z,96101.89
2018-11-25T17:43:45.076Z,96101.30
2018-11-25T17:46:14.809Z,96096.25
2018-11-25T17:48:44.788Z,96097.66
2018-11-25T17:51:14.540Z,96092.96
2018-11-25T17:53:44.319Z,96091.83
2018-11-25T17:56:14.110Z,96090.78
2018-11-25T17:58:43.957Z,96083.47
2018-11-25T18:01:13.863Z,96082.38
2018-11-25T18:03:43.935Z,96080.98
2018-11-25T18:06:13.612Z,96078.84
2018-11-25T18:08:43.484Z,96078.14
2018-11-25T18:11:13.490Z,96074.48
2018-11-25T18:13:43.548Z,96070.91
2018-11-25T18:16:14.369Z,96066.89
2018-11-25T18:18:51.849Z,96066.92
2018-11-25T18:21:25.168Z,96060.50
2018-11-25T18:23:54.942Z,96059.84
2018-11-25T18:26:24.867Z,96054.02
2018-11-25T18:28:54.733Z,96058.20
2018-11-25T18:31:24.811Z,96056.58
2018-11-25T18:33:54.529Z,96056.98
2018-11-25T18:36:24.097Z,96057.55
2018-11-25T18:38:53.843Z,96045.84
2018-11-25T18:41:23.453Z,96060.80
2018-11-25T18:43:53.311Z,96056.95
2018-11-25T18:46:23.205Z,96050.66
2018-11-25T18:48:53.749Z,96048.66
2018-11-25T18:51:23.771Z,96044.63
2018-11-25T18:53:53.540Z,96036.66
2018-11-25T18:56:23.340Z,96037.23
2018-11-25T18:58:53.104Z,96033.33
2018-11-25T19:01:30.553Z,96030.47
2018-11-25T19:04:02.361Z,96033.66
2018-11-25T19:06:32.162Z,96032.52
2018-11-25T19:09:02.450Z,96038.13
2018-11-25T19:11:33.013Z,96027.44
2018-11-25T19:14:02.828Z,96035.94
2018-11-25T19:16:32.729Z,96029.16
2018-11-25T19:19:03.080Z,96027.83
2018-11-25T19:21:32.831Z,96024.61
2018-11-25T19:24:02.693Z,96022.43
2018-11-25T19:26:32.341Z,96019.25
2018-11-25T19:29:02.268Z,96017.08
2018-11-25T19:31:32.073Z,96015.22
2018-11-25T19:34:02.556Z,96016.09
2018-11-25T19:36:32.292Z,96011.66
2018-11-25T19:39:02.097Z,96008.97
2018-11-25T19:41:32.868Z,96008.46
2018-11-25T19:44:06.300Z,96005.25
2018-11-25T19:46:36.740Z,95994.72
2018-11-25T19:49:10.773Z,95998.13
2018-11-25T19:51:40.914Z,95990.69
2018-11-25T19:54:10.887Z,95989.02
2018-11-25T19:56:40.693Z,95989.02
2018-11-25T19:59:10.567Z,95998.00
2018-11-25T20:01:40.368Z,95993.11
2018-11-25T20:04:10.176Z,95984.97
2018-11-25T20:06:40.312Z,95986.67
2018-11-25T20:09:10.977Z,95989.38
2018-11-25T20:11:40.699Z,95985.14
2018-11-25T20:14:10.880Z,95983.44
2018-11-25T20:16:45.979Z,95982.27
2018-11-25T20:19:15.972Z,95983.44
2018-11-25T20:21:50.821Z,95978.20
2018-11-25T20:24:20.936Z,95972.96
2018-11-25T20:26:56.143Z,95978.70
2018-11-25T20:29:25.928Z,95973.46
2018-11-25T20:32:59.488Z,95968.36
2018-11-25T20:35:29.524Z,95975.31
2018-11-25T20:38:04.805Z,95966.18
2018-11-25T20:40:34.805Z,95964.64
2018-11-25T20:43:04.731Z,95968.16
2018-11-25T20:45:39.884Z,95959.36
2018-11-25T20:48:09.643Z,95962.89
2018-11-25T20:50:39.403Z,95950.69
2018-11-25T20:53:14.166Z,95957.13
2018-11-25T20:55:44.031Z,95956.78
2018-11-25T20:58:13.672Z,95954.44
2018-11-25T21:00:43.847Z,95945.44
2018-11-25T21:03:13.976Z,95945.42
2018-11-25T21:05:43.736Z,95936.44
2018-11-25T21:08:13.676Z,95938.33
2018-11-25T21:10:43.569Z,95934.09
2018-11-25T21:13:13.467Z,95936.77
2018-11-25T21:15:43.157Z,95933.71
2018-11-25T21:18:12.899Z,95938.80
2018-11-25T21:20:50.841Z,95927.47
2018-11-25T21:23:12.480Z,95925.75
2018-11-25T21:25:42.225Z,95926.76
2018-11-25T21:28:12.158Z,95929.92
2018-11-25T21:30:41.946Z,95923.30
2018-11-25T21:33:11.744Z,95924.78
2018-11-25T21:35:41.771Z,95918.84
2018-11-25T21:38:11.531Z,95918.99
2018-11-25T21:40:41.331Z,95909.99
2018-11-25T21:43:11.032Z,95914.72
2018-11-25T21:45:41.191Z,95911.34
2018-11-25T21:48:10.964Z,95909.16
2018-11-25T21:50:40.874Z,95903.05
2018-11-25T21:53:10.688Z,95901.69
2018-11-25T21:55:40.479Z,95907.77
2018-11-25T21:58:10.170Z,95900.97
2018-11-25T22:00:40.000Z,95900.78
2018-11-25T22:03:09.691Z,95900.23
2018-11-25T22:05:39.416Z,95898.00
2018-11-25T22:08:09.175Z,95891.73
2018-11-25T22:10:39.059Z,95896.29
2018-11-25T22:13:09.365Z,95897.48
2018-11-25T22:15:39.046Z,95897.46
2018-11-25T22:18:08.840Z,95901.47
2018-11-25T22:20:38.532Z,95893.34
2018-11-25T22:23:08.328Z,95890.22
2018-11-25T22:25:38.026Z,95889.53
2018-11-25T22:28:07.819Z,95883.12
2018-11-25T22:30:37.908Z,95884.77
2018-11-25T22:33:07.880Z,95878.02
2018-11-25T22:35:38.044Z,95874.44
2018-11-25T22:38:08.940Z,95876.98
2018-11-25T22:40:38.584Z,95870.33
2018-11-25T22:43:08.488Z,95871.84
2018-11-25T22:45:38.097Z,95868.80
2018-11-25T22:48:07.980Z,95865.70
2018-11-25T22:50:38.066Z,95858.89
2018-11-25T22:53:08.351Z,95854.61
2018-11-25T22:55:37.976Z,95853.63
2018-11-25T22:58:07.763Z,95856.33
2018-11-25T23:00:38.350Z,95858.14
2018-11-25T23:03:08.477Z,95846.78
2018-11-25T23:05:49.112Z,95843.06
2018-11-25T23:08:18.933Z,95843.39
2018-11-25T23:10:48.675Z,95837.11
2018-11-25T23:13:18.281Z,95836.98
2018-11-25T23:15:48.050Z,95832.34
2018-11-25T23:18:17.712Z,95833.16
2018-11-25T23:20:47.548Z,95822.96
2018-11-25T23:23:17.268Z,95831.95
2018-11-25T23:25:47.068Z,95822.66
2018-11-25T23:28:16.833Z,95818.91
2018-11-25T23:30:46.529Z,95821.58
2018-11-25T23:33:16.363Z,95817.34
2018-11-25T23:35:46.057Z,95818.36
2018-11-25T23:38:15.782Z,95813.19
2018-11-25T23:40:45.580Z,95811.51
2018-11-25T23:43:15.335Z,95808.31
2018-11-25T23:45:45.019Z,95802.69
2018-11-25T23:48:14.818Z,95798.77
2018-11-25T23:50:44.574Z,95795.34
2018-11-25T23:53:14.335Z,95787.91
2018-11-25T23:55:44.131Z,95783.50
2018-11-25T23:58:13.732Z,95792.09
